Terminal Aerodrome Forecast
Issued by NWS

Home | Current Version | Previous Version | Graphics & Text | Print | Product List | Glossary On
Versions: 1 2 3 4 5 6 7 8 9 10 11 12 13 14 15
000
FTUS43 KTOP 241700
TAFFOE
TAF
KFOE 241720Z 2418/2518 16012G19KT P6SM OVC013
     FM242200 16014G22KT P6SM SCT020 BKN035
      TEMPO 2502/2506 1SM TSRA BKN022CB
     FM250600 18006KT P6SM VCTS OVC035CB
     FM251200 27011KT P6SM BKN050=

USA.gov is the U.S. government's official web portal to all federal, state and local government web resources and services.